Hauptseite
METAR-TAF:

METAR-TAF

Flughäfen :

Flughafen N’Djamena

N’Djamena, Tschad

Breite: 12-08N, Länge: 015-02E, Höhe: 295 m

Beobachtung

Neuester Wetterbericht von vor 1 Stunde und 4 Minuten, um 18:00 UTC
Wind 6 kt aus West/Nordwest
Temperatur 32°C
Luftfeuchtigkeit 23%
Luftdruck 1007 hPa
Sichtweite: 8000 m

METAR: FTTJ 231800Z 30006KT 8000 NSC 32/08 Q1007 NOSIG

Zeit: 20:04 (19:04 UTC)

Prognose

Neuester Wetterbericht von vor 2 Stunden und 4 Minuten, um 17:00 UTC
Gültige Prognose vom 23 um 18 UTC bis 24 um 24 UTC
Wind 6 kt aus Ost/Nordost
Sichtweite 10 km oder mehr
keine Wolken unter 1500 m und keine Kumulonimbus oder Gewitterwolken
Zeitweise
vom 24 um 05 UTC bis 24 um 11 UTC
Sichtweite: 4000 m
trockener Dunst
Zeitweise
vom 24 um 12 UTC bis 24 um 18 UTC
Gewitter

TAF: FTTJ 231700Z 2318/2424 06006KT CAVOK TEMPO 2405/2411 4000 HZ TEMPO 2412/2418 TS

Wetterbeobachtungen und Prognosen von mehr als 4000 Flughäfen (METAR und TAF Bericht).

Die verfügbaren Stationen werden durch gelbe und rote Markierungen auf der Karte dargestellt.

Führen Sie die Maus auf sie, um den Namen der Station zu sehen.

Darauf klicken, um die Beobachtung von Wetterbeobachtungen und Prognosen zu sehen.

Um die Karte zu ändern : klicken Sie auf den grünen Tasten mit einem schwarzen Kreuz Zum Vergrößern, auf den grünen Button mit einem Gedankenstrich zu verkleinern, oder auf die grünen Pfeile für benachbarte Karten.


METAR-TAF: